Time;durP1;ratioP1;P1;durP2;ratioP2;P2;SDS_P1;SDS_P2;PMS_P1;PMS_P2;Temp;Humidity;BMP_temperature;BMP_pressure;BME280_temperature;BME280_humidity;BME280_pressure;Samples;Min_cycle;Max_cycle;Signal;HPM_P1;HPM_P2
2023/08/22 00:00:39;;;;;;;;;1.00;1.00;;;;;25.27;90.73;101741.47;5097796;27;64705;-71
2023/08/22 00:03:04;;;;;;;;;1.00;1.00;;;;;25.20;92.09;101743.50;5093137;27;45318;-70
2023/08/22 00:05:29;;;;;;;;;2.00;2.00;;;;;25.17;92.42;101740.91;5095378;27;60941;-71
2023/08/22 00:07:55;;;;;;;;;2.00;1.00;;;;;25.16;93.11;101746.38;5096008;27;70532;-71
2023/08/22 00:10:20;;;;;;;;;1.00;1.00;;;;;25.13;93.11;101754.56;5095789;27;67146;-71
2023/08/22 00:12:45;;;;;;;;;2.67;1.00;;;;;25.10;93.49;101750.16;5098695;27;45810;-71
2023/08/22 00:15:12;;;;;;;;;1.00;1.00;;;;;25.10;94.01;101744.75;5098205;27;63013;-71
2023/08/22 00:17:39;;;;;;;;;1.00;1.00;;;;;25.12;94.21;101748.28;5097730;27;45363;-70
2023/08/22 00:20:08;;;;;;;;;1.00;1.00;;;;;25.09;94.37;101745.72;5099182;27;45158;-70
2023/08/22 00:22:34;;;;;;;;;1.00;1.00;;;;;25.07;94.88;101753.84;5080751;27;45360;-71
2023/08/22 00:24:59;;;;;;;;;1.00;1.00;;;;;25.04;96.05;101743.13;5098861;27;45513;-73
2023/08/22 00:27:24;;;;;;;;;1.00;1.00;;;;;25.03;96.43;101744.03;5098254;27;57134;-71
2023/08/22 00:29:50;;;;;;;;;1.00;1.00;;;;;25.03;95.82;101745.88;5097676;27;66890;-72
2023/08/22 00:32:15;;;;;;;;;1.00;1.00;;;;;24.98;96.41;101754.16;5098466;27;57950;-71
2023/08/22 00:34:40;;;;;;;;;1.00;1.00;;;;;24.95;96.80;101750.66;5095417;27;62942;-74
2023/08/22 00:37:06;;;;;;;;;1.00;1.00;;;;;24.95;96.68;101762.34;5097347;27;71457;-74
2023/08/22 00:39:32;;;;;;;;;1.00;1.00;;;;;24.92;97.67;101750.75;5097115;27;62069;-70
2023/08/22 00:41:57;;;;;;;;;1.67;1.67;;;;;24.88;97.64;101747.28;5097068;27;45360;-71
2023/08/22 00:44:22;;;;;;;;;1.00;1.00;;;;;24.88;97.81;101749.13;5098538;27;45440;-73
2023/08/22 00:46:48;;;;;;;;;2.00;1.00;;;;;24.85;97.97;101741.97;5096892;27;67395;-72
2023/08/22 00:49:14;;;;;;;;;2.00;2.00;;;;;24.88;98.44;101738.31;5061997;27;65754;-72
2023/08/22 00:51:40;;;;;;;;;1.33;1.33;;;;;24.84;98.82;101734.81;5094584;27;45465;-72
2023/08/22 00:54:05;;;;;;;;;1.00;1.00;;;;;24.80;99.08;101736.72;5098573;27;45444;-71
2023/08/22 00:56:31;;;;;;;;;1.00;1.00;;;;;24.77;100.00;101734.16;5096921;27;69804;-70
2023/08/22 00:58:58;;;;;;;;;3.67;2.00;;;;;24.72;100.00;101740.66;5097984;27;45308;-71
2023/08/22 01:01:24;;;;;;;;;2.67;1.00;;;;;24.68;99.85;101741.69;5079712;27;45413;-71
2023/08/22 01:03:49;;;;;;;;;3.00;2.00;;;;;24.70;100.00;101737.09;5097922;27;45510;-71
2023/08/22 01:06:26;;;;;;;;;1.00;1.00;;;;;24.68;100.00;101738.97;5096827;27;68656;-73
2023/08/22 01:08:57;;;;;;;;;3.67;1.00;;;;;24.62;100.00;101740.06;5059617;27;45542;-70
2023/08/22 01:11:27;;;;;;;;;1.00;1.00;;;;;24.61;100.00;101729.28;5094303;27;45489;-71
2023/08/22 01:13:54;;;;;;;;;1.00;1.00;;;;;24.62;100.00;101726.56;5079388;27;45460;-71
2023/08/22 01:16:20;;;;;;;;;1.00;1.00;;;;;24.58;100.00;101724.88;5075063;27;47061;-72
2023/08/22 01:18:45;;;;;;;;;1.00;1.00;;;;;24.55;100.00;101727.66;5098501;27;45452;-73
2023/08/22 01:21:18;;;;;;;;;1.67;1.00;;;;;24.52;100.00;101725.97;5097362;27;66051;-71
2023/08/22 01:23:43;;;;;;;;;1.00;1.00;;;;;24.47;100.00;101722.53;5083542;27;45441;-73
2023/08/22 01:26:09;;;;;;;;;1.00;1.00;;;;;24.48;100.00;101721.59;5102059;27;62891;-74
2023/08/22 01:28:40;;;;;;;;;3.33;1.00;;;;;24.45;100.00;101719.03;5075667;27;45473;-74
2023/08/22 01:31:14;;;;;;;;;3.00;1.00;;;;;24.42;100.00;101712.81;5079633;27;45488;-74
2023/08/22 01:33:46;;;;;;;;;1.00;1.00;;;;;24.37;100.00;101704.00;5078532;27;45406;-72
2023/08/22 01:36:12;;;;;;;;;3.00;1.00;;;;;24.37;100.00;101702.16;5070250;27;47417;-71
2023/08/22 01:38:40;;;;;;;;;1.00;1.00;;;;;24.37;100.00;101706.69;5084689;27;45427;-73
2023/08/22 01:41:05;;;;;;;;;3.00;1.00;;;;;24.32;100.00;101701.41;5079574;27;64665;-71
2023/08/22 01:43:34;;;;;;;;;3.00;2.00;;;;;24.33;100.00;101702.28;5079700;27;61028;-71
2023/08/22 01:45:59;;;;;;;;;3.67;1.67;;;;;24.30;100.00;101700.59;5096771;27;46503;-73
2023/08/22 01:48:25;;;;;;;;;2.67;1.67;;;;;24.27;100.00;101708.75;5097082;27;68892;-71
2023/08/22 01:50:50;;;;;;;;;2.00;1.00;;;;;24.25;100.00;101705.25;5097695;27;45407;-72
2023/08/22 01:53:15;;;;;;;;;1.00;1.00;;;;;24.25;100.00;101699.84;5097950;27;62407;-71
2023/08/22 01:55:41;;;;;;;;;4.67;1.00;;;;;24.21;100.00;101699.03;5088905;27;54363;-72
2023/08/22 01:58:10;;;;;;;;;1.67;1.33;;;;;24.20;100.00;101704.50;5097910;27;45407;-72
2023/08/22 02:00:36;;;;;;;;;3.33;1.00;;;;;24.15;100.00;101707.34;5094681;27;45362;-73
2023/08/22 02:03:02;;;;;;;;;2.00;2.00;;;;;24.13;100.00;101717.31;5098712;27;45484;-71
2023/08/22 02:05:27;;;;;;;;;1.00;1.00;;;;;24.13;100.00;101708.31;5106978;27;46479;-72
2023/08/22 02:07:53;;;;;;;;;1.00;1.00;;;;;24.11;100.00;101700.25;5096363;27;70998;-71
2023/08/22 02:10:19;;;;;;;;;4.00;1.00;;;;;24.11;100.00;101697.56;5103639;27;45487;-71
2023/08/22 02:12:44;;;;;;;;;1.00;1.00;;;;;24.08;100.00;101691.41;5101106;27;45603;-72
2023/08/22 02:15:09;;;;;;;;;1.00;1.00;;;;;24.05;100.00;101692.38;5099755;27;54893;-72
2023/08/22 02:17:35;;;;;;;;;4.00;1.00;;;;;24.04;100.00;101693.31;5097025;27;67341;-71
2023/08/22 02:20:00;;;;;;;;;1.00;1.00;;;;;24.03;100.00;101696.94;5100297;27;54997;-74
2023/08/22 02:22:25;;;;;;;;;3.33;1.00;;;;;24.00;100.00;101697.91;5096670;27;45953;-74
2023/08/22 02:24:51;;;;;;;;;2.00;2.00;;;;;23.95;100.00;101690.88;5100715;27;71351;-71
2023/08/22 02:27:16;;;;;;;;;1.00;1.00;;;;;23.96;100.00;101689.94;5102085;27;65166;-71
2023/08/22 02:29:41;;;;;;;;;1.00;1.00;;;;;23.96;100.00;101689.94;5098532;27;53098;-71
2023/08/22 02:32:07;;;;;;;;;2.00;2.00;;;;;23.94;100.00;101686.44;5097237;27;64349;-71
2023/08/22 02:34:32;;;;;;;;;1.00;1.00;;;;;23.93;100.00;101685.53;5099819;27;59697;-73
2023/08/22 02:36:57;;;;;;;;;1.00;1.00;;;;;23.94;100.00;101687.31;5095632;27;55430;-71
2023/08/22 02:39:23;;;;;;;;;5.33;2.00;;;;;23.93;100.00;101688.25;5098639;27;60934;-71
2023/08/22 02:41:48;;;;;;;;;3.33;2.00;;;;;23.92;100.00;101681.09;5095373;27;57637;-70
2023/08/22 02:44:13;;;;;;;;;2.00;2.00;;;;;23.87;100.00;101677.66;5097770;27;62843;-71
2023/08/22 02:46:39;;;;;;;;;1.00;1.00;;;;;23.88;100.00;101679.41;5101616;27;60496;-71
2023/08/22 02:49:04;;;;;;;;;1.33;1.00;;;;;23.85;100.00;101678.59;5094437;27;62554;-72
2023/08/22 02:51:31;;;;;;;;;1.00;1.00;;;;;23.85;100.00;101679.50;5101695;27;45900;-73
2023/08/22 02:53:56;;;;;;;;;1.00;1.00;;;;;23.86;100.00;101683.94;5091239;27;46726;-72
2023/08/22 02:56:21;;;;;;;;;2.00;2.00;;;;;23.83;100.00;101678.66;5099689;27;54991;-71
2023/08/22 02:58:47;;;;;;;;;1.33;1.33;;;;;23.83;100.00;101677.78;5092282;27;45347;-72
2023/08/22 03:01:12;;;;;;;;;2.33;2.00;;;;;23.80;100.00;101676.06;5079279;27;45617;-71
2023/08/22 03:03:38;;;;;;;;;1.00;1.00;;;;;23.75;100.00;101675.31;5088936;27;46478;-73
2023/08/22 03:06:04;;;;;;;;;2.00;2.00;;;;;23.74;100.00;101677.13;5095597;27;45376;-73
2023/08/22 03:08:29;;;;;;;;;2.00;1.00;;;;;23.75;100.00;101678.00;5092428;27;45434;-72
2023/08/22 03:10:59;;;;;;;;;2.00;2.00;;;;;23.75;100.00;101689.66;5078213;27;45419;-71
2023/08/22 03:13:25;;;;;;;;;3.00;1.00;;;;;23.73;100.00;101690.66;5100363;27;45857;-71
2023/08/22 03:15:52;;;;;;;;;2.67;2.00;;;;;23.73;100.00;101694.25;5084767;27;60922;-71
2023/08/22 03:18:17;;;;;;;;;1.33;1.00;;;;;23.71;100.00;101677.22;5105453;27;53807;-71
2023/08/22 03:20:43;;;;;;;;;1.00;1.00;;;;;23.71;100.00;101679.06;5105762;27;64243;-71
2023/08/22 03:23:08;;;;;;;;;2.00;2.00;;;;;23.67;100.00;101674.66;5102502;27;71346;-72
2023/08/22 03:25:33;;;;;;;;;1.00;1.00;;;;;23.66;100.00;101670.22;5107022;27;68456;-73
2023/08/22 03:27:59;;;;;;;;;2.00;2.00;;;;;23.66;100.00;101662.13;5099764;27;64619;-71
2023/08/22 03:30:24;;;;;;;;;2.67;1.00;;;;;23.64;100.00;101667.53;5104232;27;62703;-71
2023/08/22 03:32:49;;;;;;;;;3.00;1.33;;;;;23.62;100.00;101663.09;5097420;27;47479;-72
2023/08/22 03:35:15;;;;;;;;;2.33;2.00;;;;;23.64;100.00;101680.13;5095979;27;67222;-71
2023/08/22 03:37:40;;;;;;;;;3.00;1.00;;;;;23.63;100.00;101676.56;5099092;27;45526;-70
2023/08/22 03:40:06;;;;;;;;;2.00;2.00;;;;;23.65;100.00;101682.81;5094523;27;45494;-73
2023/08/22 03:42:32;;;;;;;;;1.00;1.00;;;;;23.69;100.00;101688.97;5102499;27;46358;-72
2023/08/22 03:44:57;;;;;;;;;1.00;1.00;;;;;23.72;100.00;101683.50;5103017;27;68703;-71
2023/08/22 03:47:22;;;;;;;;;1.67;1.67;;;;;23.76;100.00;101680.69;5103363;27;65165;-72
2023/08/22 03:49:48;;;;;;;;;3.00;1.67;;;;;23.76;100.00;101691.47;5095484;27;62448;-71
2023/08/22 03:52:13;;;;;;;;;3.00;2.00;;;;;23.81;100.00;101688.63;5094969;27;58244;-71
2023/08/22 03:54:38;;;;;;;;;2.33;1.00;;;;;23.83;100.00;101675.97;5096937;27;45323;-71
2023/08/22 03:57:04;;;;;;;;;1.00;1.00;;;;;23.86;100.00;101672.28;5094211;27;62847;-73
2023/08/22 03:59:29;;;;;;;;;3.00;2.00;;;;;23.87;100.00;101682.16;5100965;27;46992;-73
2023/08/22 04:01:55;;;;;;;;;3.00;2.00;;;;;23.89;100.00;101683.00;5101059;27;70452;-71
2023/08/22 04:04:20;;;;;;;;;3.00;1.67;;;;;23.86;100.00;101681.25;5101588;27;45395;-72
2023/08/22 04:06:45;;;;;;;;;4.00;2.00;;;;;23.86;100.00;101681.25;5079421;27;62182;-73
2023/08/22 04:09:11;;;;;;;;;3.00;1.67;;;;;23.87;100.00;101680.34;5104468;27;48244;-73
2023/08/22 04:11:37;;;;;;;;;2.00;2.00;;;;;23.85;100.00;101676.78;5102685;27;45750;-70
2023/08/22 04:14:02;;;;;;;;;5.00;1.00;;;;;23.84;100.00;101676.84;5100192;27;45305;-71
2023/08/22 04:16:28;;;;;;;;;2.00;2.00;;;;;23.85;100.00;101673.22;5099828;27;64436;-70
2023/08/22 04:18:53;;;;;;;;;2.00;2.00;;;;;23.81;100.00;101676.94;5101514;27;62514;-73
2023/08/22 04:21:18;;;;;;;;;2.00;2.00;;;;;23.86;100.00;101681.25;5098670;27;61037;-71
2023/08/22 04:23:44;;;;;;;;;4.00;2.33;;;;;23.88;100.00;101679.41;5097376;27;66015;-73
2023/08/22 04:26:09;;;;;;;;;4.00;2.00;;;;;23.90;100.00;101677.53;5079147;27;65396;-70
2023/08/22 04:28:34;;;;;;;;;2.67;2.00;;;;;23.90;100.00;101676.66;5097724;27;61581;-72
2023/08/22 04:31:00;;;;;;;;;1.33;1.33;;;;;23.91;100.00;101684.69;5101517;27;46189;-73
2023/08/22 04:33:25;;;;;;;;;2.33;2.00;;;;;23.88;100.00;101684.81;5099263;27;45298;-73
2023/08/22 04:35:51;;;;;;;;;4.00;2.33;;;;;23.84;100.00;101680.44;5100904;27;62897;-73
2023/08/22 04:38:16;;;;;;;;;2.00;2.00;;;;;23.81;100.00;101685.94;5102175;27;51148;-74
2023/08/22 04:40:44;;;;;;;;;4.67;2.00;;;;;23.79;100.00;101685.97;5095441;27;70197;-71
2023/08/22 04:43:09;;;;;;;;;2.00;2.00;;;;;23.73;100.00;101682.56;5101474;27;45480;-71
2023/08/22 04:45:35;;;;;;;;;4.33;2.00;;;;;23.73;100.00;101691.53;5098863;27;64726;-71
2023/08/22 04:48:00;;;;;;;;;2.00;2.00;;;;;23.70;100.00;101685.34;5098873;27;45413;-71
2023/08/22 04:50:26;;;;;;;;;2.67;2.00;;;;;23.69;100.00;101686.28;5097387;27;45530;-71
2023/08/22 04:52:51;;;;;;;;;2.00;2.00;;;;;23.66;100.00;101686.38;5098641;27;63260;-71
2023/08/22 04:55:16;;;;;;;;;1.00;1.00;;;;;23.64;100.00;101685.53;5099787;27;63187;-73
2023/08/22 04:57:42;;;;;;;;;2.33;2.00;;;;;23.65;100.00;101698.06;5095235;27;45727;-71
2023/08/22 05:00:11;;;;;;;;;3.00;2.00;;;;;23.62;100.00;101698.16;5096427;27;69214;-70
2023/08/22 05:02:36;;;;;;;;;2.00;2.00;;;;;23.59;100.00;101703.63;5098054;27;45435;-73
2023/08/22 05:05:03;;;;;;;;;4.00;2.67;;;;;23.58;100.00;101704.56;5093420;27;46128;-73
2023/08/22 05:07:29;;;;;;;;;2.67;2.00;;;;;23.59;100.00;101714.41;5098295;27;45739;-71
2023/08/22 05:09:54;;;;;;;;;3.00;2.00;;;;;23.60;100.00;101711.69;5106565;27;45534;-73
2023/08/22 05:12:20;;;;;;;;;3.00;2.00;;;;;23.59;100.00;101709.91;5101592;27;67821;-70
2023/08/22 05:14:46;;;;;;;;;3.00;3.00;;;;;23.63;100.00;101711.63;5099367;27;45268;-73
2023/08/22 05:17:11;;;;;;;;;1.00;1.00;;;;;23.69;100.00;101716.81;5101839;27;45572;-71
2023/08/22 05:19:36;;;;;;;;;3.33;2.67;;;;;23.72;100.00;101713.16;5090057;27;45612;-71
2023/08/22 05:22:02;;;;;;;;;1.00;1.00;;;;;23.76;100.00;101712.16;5095244;27;69782;-74
2023/08/22 05:24:27;;;;;;;;;2.00;2.00;;;;;23.81;100.00;101704.81;5103707;27;63717;-70
2023/08/22 05:26:52;;;;;;;;;3.00;2.00;;;;;23.81;100.00;101699.41;5096471;27;62942;-71
2023/08/22 05:29:20;;;;;;;;;6.00;3.00;;;;;23.86;100.00;101694.75;5099675;27;68426;-73
2023/08/22 05:31:46;;;;;;;;;1.00;1.00;;;;;23.90;100.00;101693.72;5098081;27;45434;-71
2023/08/22 05:34:11;;;;;;;;;4.33;1.00;;;;;23.89;100.00;101707.25;5098428;27;45384;-72
2023/08/22 05:36:37;;;;;;;;;2.67;2.33;;;;;23.89;100.00;101700.06;5098728;27;45835;-73
2023/08/22 05:39:03;;;;;;;;;3.67;2.00;;;;;23.89;100.00;101708.16;5097156;27;45661;-73
2023/08/22 05:41:28;;;;;;;;;4.00;2.00;;;;;23.91;100.00;101705.38;5090106;27;45415;-71
2023/08/22 05:43:54;;;;;;;;;5.33;3.00;;;;;23.91;100.00;101716.19;5072774;27;45608;-72
2023/08/22 05:46:19;;;;;;;;;3.00;1.67;;;;;23.91;100.00;101713.50;5092946;27;59536;-73
2023/08/22 05:48:44;;;;;;;;;3.00;3.00;;;;;23.88;100.00;101709.09;5091009;27;45813;-72
2023/08/22 05:51:10;;;;;;;;;5.67;2.00;;;;;23.90;100.00;101718.00;5088880;27;63851;-71
2023/08/22 05:53:35;;;;;;;;;3.33;2.67;;;;;23.92;100.00;101720.69;5095212;27;63523;-72
2023/08/22 05:56:00;;;;;;;;;3.00;3.00;;;;;23.92;100.00;101715.28;5095751;27;45350;-70
2023/08/22 05:58:26;;;;;;;;;4.67;3.00;;;;;23.93;100.00;101712.53;5086737;27;46181;-73
2023/08/22 06:00:51;;;;;;;;;6.33;3.00;;;;;24.03;100.00;101723.94;5091251;27;45548;-71
2023/08/22 06:03:18;;;;;;;;;4.67;3.00;;;;;24.10;100.00;101740.81;5075248;27;62258;-72
2023/08/22 06:05:44;;;;;;;;;3.00;3.00;;;;;24.14;100.00;101737.97;5096396;27;45900;-71
2023/08/22 06:08:09;;;;;;;;;4.00;4.00;;;;;24.20;100.00;101735.06;5091092;27;46464;-71
2023/08/22 06:10:34;;;;;;;;;5.00;3.00;;;;;24.22;100.00;101737.72;5093909;27;67317;-70
2023/08/22 06:13:00;;;;;;;;;3.33;3.33;;;;;24.25;100.00;101737.63;5092655;27;64118;-70
2023/08/22 06:15:25;;;;;;;;;4.33;3.00;;;;;24.31;100.00;101748.22;5089919;27;56390;-73
2023/08/22 06:17:50;;;;;;;;;6.67;4.00;;;;;24.29;100.00;101742.00;5090186;27;55090;-73
2023/08/22 06:20:16;;;;;;;;;5.00;2.00;;;;;24.35;100.00;101752.63;5092647;27;59393;-73
2023/08/22 06:22:41;;;;;;;;;2.67;2.00;;;;;24.38;100.00;101757.03;5093603;27;57533;-71
2023/08/22 06:25:07;;;;;;;;;3.00;2.67;;;;;24.39;100.00;101754.28;5087779;27;57123;-71
2023/08/22 06:27:32;;;;;;;;;5.00;3.00;;;;;24.44;100.00;101759.53;5084252;27;45568;-72
2023/08/22 06:29:58;;;;;;;;;7.00;4.00;;;;;24.51;100.00;101756.63;5075243;27;65326;-74
2023/08/22 06:32:23;;;;;;;;;7.67;4.00;;;;;24.52;100.00;101758.38;5091844;27;62733;-71
2023/08/22 06:34:49;;;;;;;;;5.67;3.67;;;;;24.54;100.00;101756.50;5095479;27;47233;-73
2023/08/22 06:37:14;;;;;;;;;2.33;2.33;;;;;24.52;100.00;101755.69;5095297;27;64012;-70
2023/08/22 06:39:40;;;;;;;;;4.00;4.00;;;;;24.52;100.00;101750.28;5088702;27;65107;-71
2023/08/22 06:42:06;;;;;;;;;5.33;3.33;;;;;24.54;100.00;101756.50;5095098;27;45437;-71
2023/08/22 06:44:31;;;;;;;;;3.67;3.67;;;;;24.54;100.00;101747.50;5089149;27;45615;-70
2023/08/22 06:46:56;;;;;;;;;5.00;3.00;;;;;24.48;100.00;101739.63;5094136;27;64602;-71
2023/08/22 06:49:22;;;;;;;;;3.00;3.00;;;;;24.44;100.00;101741.53;5094572;27;63393;-70
2023/08/22 06:51:47;;;;;;;;;5.00;4.00;;;;;24.40;100.00;101739.00;5090347;27;63047;-73
2023/08/22 06:54:12;;;;;;;;;4.00;2.33;;;;;24.36;100.00;101740.03;5092728;27;57613;-73
2023/08/22 06:56:38;;;;;;;;;4.00;4.00;;;;;24.34;100.00;101753.50;5093018;27;58116;-70
2023/08/22 06:59:03;;;;;;;;;3.33;3.33;;;;;24.34;100.00;101767.00;5087203;27;45332;-71
2023/08/22 07:01:29;;;;;;;;;8.00;3.00;;;;;24.28;100.00;101773.47;5083438;27;57473;-72
2023/08/22 07:03:54;;;;;;;;;8.00;5.00;;;;;24.28;100.00;101765.38;5084342;27;48560;-71
2023/08/22 07:06:19;;;;;;;;;5.00;4.00;;;;;24.29;100.00;101761.78;5084250;27;70132;-72
2023/08/22 07:08:45;;;;;;;;;5.00;4.00;;;;;24.28;100.00;101768.09;5086532;27;46025;-74
2023/08/22 07:11:10;;;;;;;;;3.00;3.00;;;;;24.29;100.00;101769.00;5087401;27;64896;-74
2023/08/22 07:13:35;;;;;;;;;5.00;3.00;;;;;24.31;100.00;101756.31;5086542;27;57993;-75
2023/08/22 07:16:01;;;;;;;;;4.00;4.00;;;;;24.35;100.00;101766.13;5076822;27;46572;-72
2023/08/22 07:18:27;;;;;;;;;3.00;3.00;;;;;24.42;100.00;101751.50;5090100;27;45538;-73
2023/08/22 07:20:53;;;;;;;;;4.00;4.00;;;;;24.49;100.00;101744.97;5070937;27;45384;-73
2023/08/22 07:23:19;;;;;;;;;6.00;3.00;;;;;24.53;100.00;101749.34;5070789;27;45496;-73
2023/08/22 07:25:48;;;;;;;;;5.00;4.00;;;;;24.66;100.00;101754.31;5091418;27;46546;-74
2023/08/22 07:28:14;;;;;;;;;5.00;3.33;;;;;24.72;100.00;101752.34;5073463;27;45480;-72
2023/08/22 07:30:40;;;;;;;;;3.00;3.00;;;;;24.83;100.00;101757.38;5095872;27;45597;-74
2023/08/22 07:33:05;;;;;;;;;4.00;4.00;;;;;24.90;100.00;101748.13;5093067;27;45303;-75
2023/08/22 07:35:34;;;;;;;;;5.00;4.00;;;;;24.97;100.00;101752.38;5090195;27;45663;-73
2023/08/22 07:37:59;;;;;;;;;4.67;4.67;;;;;25.07;100.00;101755.66;5076616;27;45430;-73
2023/08/22 07:40:24;;;;;;;;;2.67;2.67;;;;;25.11;100.00;101764.56;5089186;27;66890;-72
2023/08/22 07:42:50;;;;;;;;;5.00;5.00;;;;;25.18;100.00;101771.50;5099197;27;61924;-75
2023/08/22 07:45:15;;;;;;;;;8.33;5.33;;;;;25.25;100.00;101770.38;5177231;22;46397;-75
2023/08/22 07:47:40;;;;;;;;;6.33;5.00;;;;;25.32;100.00;101759.28;5072299;27;45475;-78
2023/08/22 07:50:06;;;;;;;;;4.67;4.00;;;;;25.35;100.00;101755.56;5071430;28;63373;-76
2023/08/22 07:52:31;;;;;;;;;4.00;4.00;;;;;25.39;100.00;101759.06;5074363;28;45289;-76
2023/08/22 07:54:57;;;;;;;;;5.67;3.67;;;;;25.45;100.00;101769.66;5072393;28;54414;-76
2023/08/22 07:57:22;;;;;;;;;3.33;3.33;;;;;25.50;100.00;101764.97;5073632;28;57511;-74
2023/08/22 07:59:47;;;;;;;;;4.33;4.33;;;;;25.57;100.00;101764.69;5073810;28;64108;-74
2023/08/22 08:02:13;;;;;;;;;6.33;5.00;;;;;25.64;100.00;101764.47;5078247;28;45304;-74
2023/08/22 08:04:39;;;;;;;;;4.33;4.33;;;;;25.71;100.00;101763.28;5077330;28;46287;-75
2023/08/22 08:07:04;;;;;;;;;4.00;4.00;;;;;25.66;100.00;101767.97;5078983;28;45489;-74
2023/08/22 08:09:30;;;;;;;;;4.00;4.00;;;;;25.79;100.00;101778.34;5078645;28;45288;-74
2023/08/22 08:11:55;;;;;;;;;6.33;4.00;;;;;25.83;100.00;101771.88;5074810;28;45445;-75
2023/08/22 08:14:20;;;;;;;;;4.00;3.00;;;;;25.89;100.00;101770.75;5075259;28;46426;-73
2023/08/22 08:16:46;;;;;;;;;2.00;2.00;;;;;25.95;100.00;101772.34;5074433;28;59598;-74
2023/08/22 08:19:13;;;;;;;;;4.00;4.00;;;;;26.01;100.00;101772.13;5077730;28;50922;-74
2023/08/22 08:21:38;;;;;;;;;3.00;3.00;;;;;26.08;100.00;101771.81;5078146;28;45309;-74
2023/08/22 08:24:04;;;;;;;;;3.67;3.33;;;;;26.01;100.00;101782.94;5076463;28;67859;-74
2023/08/22 08:26:30;;;;;;;;;8.67;4.67;;;;;26.03;100.00;101775.63;5078248;28;45374;-75
2023/08/22 08:28:55;;;;;;;;;4.00;4.00;;;;;26.16;100.00;101776.94;5063210;27;45428;-75
2023/08/22 08:31:21;;;;;;;;;3.00;3.00;;;;;26.23;100.00;101778.44;5079848;27;45312;-74
2023/08/22 08:33:46;;;;;;;;;6.00;3.00;;;;;26.29;100.00;101780.03;5078573;27;47342;-74
2023/08/22 08:36:12;;;;;;;;;6.00;4.33;;;;;26.38;100.00;101782.38;5079301;27;45345;-75
2023/08/22 08:38:37;;;;;;;;;4.00;4.00;;;;;26.44;100.00;101784.88;5077082;27;54584;-75
2023/08/22 08:41:03;;;;;;;;;5.33;4.00;;;;;26.49;100.00;101784.69;5085699;27;45593;-75
2023/08/22 08:43:29;;;;;;;;;4.33;3.00;;;;;26.53;100.00;101780.94;5078442;27;47567;-75
2023/08/22 08:45:55;;;;;;;;;3.00;2.67;;;;;26.55;100.00;101774.50;5061230;27;45411;-74
2023/08/22 08:48:21;;;;;;;;;6.00;3.33;;;;;26.58;100.00;101773.47;5080175;27;45469;-75
2023/08/22 08:50:48;;;;;;;;;4.00;4.00;;;;;26.58;100.00;101768.97;5078110;27;45546;-75
2023/08/22 08:53:13;;;;;;;;;6.67;4.33;;;;;26.59;100.00;101770.72;5059758;28;46475;-74
2023/08/22 08:55:41;;;;;;;;;5.00;3.67;;;;;26.65;100.00;101761.47;5053811;28;64816;-75
2023/08/22 08:58:07;;;;;;;;;3.33;3.33;;;;;26.72;100.00;101762.06;5084171;27;45418;-74
2023/08/22 09:00:33;;;;;;;;;4.33;3.67;;;;;26.80;100.00;101762.66;5078125;27;45629;-75
2023/08/22 09:02:59;;;;;;;;;3.33;3.33;;;;;26.85;100.00;101760.63;5081767;27;68093;-74
2023/08/22 09:05:24;;;;;;;;;5.67;4.00;;;;;26.89;100.00;101752.28;5080703;27;45300;-74
2023/08/22 09:07:50;;;;;;;;;3.00;1.00;;;;;26.99;100.00;101751.91;5058797;27;58210;-74
2023/08/22 09:10:32;;;;;;;;;3.00;3.00;;;;;27.06;100.00;101745.25;5079521;27;45181;-74
2023/08/22 09:13:02;;;;;;;;;4.00;3.00;;;;;27.17;100.00;101752.97;5078396;27;46325;-74
2023/08/22 09:15:27;;;;;;;;;3.00;3.00;;;;;27.26;100.00;101753.44;5084817;27;45264;-75
2023/08/22 09:17:56;;;;;;;;;4.33;4.33;;;;;27.30;100.00;101744.22;5080276;27;62871;-74
2023/08/22 09:20:21;;;;;;;;;3.00;3.00;;;;;27.37;100.00;101753.84;5080269;27;45434;-75
2023/08/22 09:22:46;;;;;;;;;3.00;3.00;;;;;27.44;100.00;101746.34;5078508;27;45885;-74
2023/08/22 09:25:12;;;;;;;;;4.00;4.00;;;;;27.48;100.00;101752.47;5078620;27;55931;-74
2023/08/22 09:27:37;;;;;;;;;3.33;2.33;;;;;27.51;100.00;101755.06;5078530;27;45830;-75
2023/08/22 09:30:06;;;;;;;;;4.00;2.67;;;;;27.56;100.00;101753.03;5076922;27;58641;-75
2023/08/22 09:32:32;;;;;;;;;5.00;3.33;;;;;27.62;100.00;101750.03;5061328;27;46194;-74
2023/08/22 09:35:00;;;;;;;;;2.00;2.00;;;;;27.68;100.00;101756.06;5076155;27;57537;-75
2023/08/22 09:37:33;;;;;;;;;1.00;0.00;;;;;27.71;100.00;101746.94;5079411;27;45508;-73
2023/08/22 09:40:00;;;;;;;;;3.00;3.00;;;;;27.78;100.00;101750.25;5082274;27;45533;-75
2023/08/22 09:42:31;;;;;;;;;2.33;2.00;;;;;27.86;100.00;101742.63;5080298;27;47612;-74
2023/08/22 09:44:57;;;;;;;;;3.67;2.67;;;;;27.91;100.00;101748.69;5083992;27;45547;-74
2023/08/22 09:47:29;;;;;;;;;2.67;2.00;;;;;28.05;100.00;101746.22;5080547;27;45410;-74
2023/08/22 09:50:04;;;;;;;;;2.00;2.00;;;;;28.20;100.00;101744.63;5080746;27;45330;-74
2023/08/22 09:52:30;;;;;;;;;1.33;1.33;;;;;28.30;100.00;101754.09;5083035;27;46399;-75
2023/08/22 09:54:56;;;;;;;;;4.33;3.00;;;;;28.39;100.00;101750.06;5075439;27;45548;-75
2023/08/22 09:57:23;;;;;;;;;5.00;2.33;;;;;28.49;99.29;101747.78;5064869;28;45479;-74
2023/08/22 09:59:51;;;;;;;;;3.00;1.33;;;;;28.58;97.91;101745.47;5080081;27;45297;-74
2023/08/22 10:02:18;;;;;;;;;2.00;2.00;;;;;28.66;97.67;101746.00;5079942;27;47527;-74
2023/08/22 10:04:44;;;;;;;;;3.33;2.67;;;;;28.73;96.28;101748.41;5078050;27;45411;-74
2023/08/22 10:07:09;;;;;;;;;4.00;2.00;;;;;28.83;95.13;101739.69;5078199;27;45455;-75
2023/08/22 10:09:35;;;;;;;;;1.67;1.67;;;;;28.93;94.98;101735.59;5077832;27;45538;-75
2023/08/22 10:12:02;;;;;;;;;3.33;2.00;;;;;29.02;93.89;101734.22;5077411;27;47397;-74
2023/08/22 10:14:34;;;;;;;;;1.00;1.00;;;;;29.12;92.85;101734.63;5059096;28;45446;-74
2023/08/22 10:17:00;;;;;;;;;8.00;7.00;;;;;29.17;92.30;101740.69;5058383;28;45382;-74
2023/08/22 10:19:26;;;;;;;;;0.67;0.67;;;;;29.25;92.46;101732.16;5066611;28;45239;-74
2023/08/22 10:21:53;;;;;;;;;2.00;2.00;;;;;29.34;91.62;101734.34;5081819;27;46124;-74
2023/08/22 10:24:29;;;;;;;;;2.00;1.67;;;;;29.43;90.65;101728.44;5081068;27;45487;-75
2023/08/22 10:27:02;;;;;;;;;4.00;2.00;;;;;29.52;90.87;101724.34;5079596;27;45521;-74
2023/08/22 10:29:31;;;;;;;;;2.33;1.00;;;;;29.61;90.61;101730.19;5082382;27;45398;-74
2023/08/22 10:31:59;;;;;;;;;1.00;1.00;;;;;29.68;90.07;101728.91;5078014;27;46738;-75
2023/08/22 10:34:24;;;;;;;;;2.00;2.00;;;;;29.75;89.88;101727.59;5076562;27;45480;-74
2023/08/22 10:36:57;;;;;;;;;4.33;3.00;;;;;29.82;90.47;101727.25;5078990;27;45391;-74
2023/08/22 10:39:37;;;;;;;;;3.00;2.00;;;;;29.90;90.10;101725.88;5076118;27;45465;-74
2023/08/22 10:42:03;;;;;;;;;3.67;2.00;;;;;30.00;89.95;101721.66;5075737;27;47524;-75
2023/08/22 10:44:30;;;;;;;;;2.00;2.00;;;;;30.12;88.48;101720.13;5083991;27;45390;-74
2023/08/22 10:47:03;;;;;;;;;3.00;2.00;;;;;30.18;87.51;101725.22;5079310;27;45305;-74
2023/08/22 10:49:33;;;;;;;;;4.67;3.00;;;;;30.26;87.29;101719.34;5079311;27;45777;-75
2023/08/22 10:52:08;;;;;;;;;2.33;2.33;;;;;30.34;87.52;101722.47;5075344;27;47458;-73
2023/08/22 10:54:55;;;;;;;;;1.00;1.00;;;;;30.44;87.26;101718.25;5080402;27;45706;-75
2023/08/22 10:57:20;;;;;;;;;3.00;2.00;;;;;30.54;86.09;101718.59;5076651;27;45332;-75
2023/08/22 11:00:07;;;;;;;;;2.00;2.00;;;;;30.61;85.75;101722.72;5082470;27;63559;-75
2023/08/22 11:02:33;;;;;;;;;2.67;2.67;;;;;30.68;84.63;101713.22;5054845;28;46761;-73
2023/08/22 11:05:00;;;;;;;;;5.00;3.00;;;;;30.78;85.38;101714.44;5080704;27;45549;-74
2023/08/22 11:07:28;;;;;;;;;2.00;2.00;;;;;30.82;84.42;101708.81;5075735;27;45522;-75
2023/08/22 11:09:53;;;;;;;;;2.00;2.00;;;;;30.91;83.95;101714.59;5075872;27;45529;-75
2023/08/22 11:12:24;;;;;;;;;2.00;2.00;;;;;30.87;84.01;101709.41;5083416;27;67492;-74
2023/08/22 11:14:51;;;;;;;;;1.67;1.67;;;;;30.97;85.18;101710.63;5079458;27;45471;-74